Time;durP1;ratioP1;P1;durP2;ratioP2;P2;SDS_P1;SDS_P2;PMS_P1;PMS_P2;Temp;Humidity;BMP_temperature;BMP_pressure;BME280_temperature;BME280_humidity;BME280_pressure;Samples;Min_cycle;Max_cycle;Signal;HPM_P1;HPM_P2
2022/06/04 00:01:45;;;;;;;5.73;4.90;;;18.60;99.90;;;;;;4133200;28;20221;-84
2022/06/04 00:03:47;;;;;;;5.80;4.67;;;18.60;99.90;;;;;;4131973;28;20707;-84
2022/06/04 00:05:52;;;;;;;9.63;4.93;;;18.60;99.90;;;;;;4148525;28;20229;-85
2022/06/04 00:07:58;;;;;;;5.93;4.37;;;18.60;99.90;;;;;;4126584;28;20586;-84
2022/06/04 00:17:13;;;;;;;5.03;4.47;;;18.60;99.90;;;;;;4104705;28;20264;-85
2022/06/04 00:19:15;;;;;;;7.27;5.10;;;18.50;99.90;;;;;;4106194;28;20319;-84
2022/06/04 00:21:17;;;;;;;7.13;4.77;;;18.50;99.90;;;;;;4145663;28;20200;-83
2022/06/04 00:23:21;;;;;;;5.20;4.70;;;18.50;99.90;;;;;;4145358;28;20241;-84
2022/06/04 00:25:23;;;;;;;5.70;4.30;;;18.50;99.90;;;;;;4131157;28;20214;-84
2022/06/04 00:27:25;;;;;;;4.97;4.33;;;18.50;99.90;;;;;;4140656;28;20274;-84
2022/06/04 00:29:27;;;;;;;6.80;5.00;;;18.40;99.90;;;;;;4148675;28;20234;-84
2022/06/04 00:31:29;;;;;;;4.67;4.17;;;18.40;99.90;;;;;;4130787;28;20224;-84
2022/06/04 00:33:31;;;;;;;6.10;4.40;;;18.40;99.90;;;;;;4151662;28;20208;-84
2022/06/04 00:35:34;;;;;;;6.70;4.37;;;18.40;99.90;;;;;;4151818;28;20237;-84
2022/06/04 00:37:36;;;;;;;7.13;4.30;;;18.40;99.90;;;;;;4152199;28;20214;-84
2022/06/04 00:39:40;;;;;;;5.40;4.37;;;18.40;99.90;;;;;;4152558;28;20408;-84
2022/06/04 00:41:49;;;;;;;5.20;4.37;;;18.40;99.90;;;;;;4150953;28;20213;-84
2022/06/04 00:44:00;;;;;;;5.30;4.70;;;18.40;99.90;;;;;;4144149;28;20216;-84
2022/06/04 00:46:35;;;;;;;5.43;4.83;;;18.40;99.90;;;;;;4149366;28;20229;-84
2022/06/04 00:48:37;;;;;;;5.63;4.50;;;18.30;99.90;;;;;;4137206;28;20640;-85
2022/06/04 00:50:42;;;;;;;6.57;4.50;;;18.40;99.90;;;;;;4145539;28;20322;-84
2022/06/04 00:52:45;;;;;;;5.03;4.53;;;18.30;99.90;;;;;;4148293;28;20213;-84
2022/06/04 00:54:52;;;;;;;6.10;4.90;;;18.40;99.90;;;;;;4144711;28;20238;-84
2022/06/04 00:56:59;;;;;;;5.67;4.60;;;18.30;99.90;;;;;;4152123;28;20228;-85
2022/06/04 00:59:15;;;;;;;5.50;4.43;;;18.40;99.90;;;;;;4149104;28;20220;-84
2022/06/04 01:01:23;;;;;;;5.73;5.07;;;18.40;99.90;;;;;;4153533;28;20211;-84
2022/06/04 01:03:36;;;;;;;6.90;5.07;;;18.30;99.90;;;;;;4153341;28;20243;-84
2022/06/04 01:05:51;;;;;;;8.33;5.80;;;18.30;99.90;;;;;;4155792;28;20219;-84
2022/06/04 01:08:22;;;;;;;7.57;4.90;;;18.30;99.90;;;;;;4157787;28;20204;-84
2022/06/04 01:10:38;;;;;;;6.33;4.63;;;18.30;99.90;;;;;;4160927;28;20264;-84
2022/06/04 01:12:52;;;;;;;6.40;4.40;;;18.30;99.90;;;;;;4150087;28;20227;-85
2022/06/04 01:15:05;;;;;;;5.50;4.93;;;18.30;99.90;;;;;;4149530;28;20215;-84
2022/06/04 01:17:17;;;;;;;7.73;5.20;;;18.30;99.90;;;;;;4142421;28;20712;-84
2022/06/04 01:19:37;;;;;;;6.00;5.20;;;18.20;99.90;;;;;;4150296;28;20213;-84
2022/06/04 01:21:50;;;;;;;9.97;4.67;;;18.30;99.90;;;;;;4143046;28;20713;-84
2022/06/04 01:24:24;;;;;;;5.73;5.03;;;18.40;99.90;;;;;;4146872;28;20212;-84
2022/06/04 01:26:49;;;;;;;6.43;5.20;;;18.20;99.90;;;;;;4145154;28;20233;-84
2022/06/04 01:28:57;;;;;;;7.67;5.20;;;18.20;99.90;;;;;;4143487;28;20292;-84
2022/06/04 01:31:05;;;;;;;8.77;5.10;;;18.20;99.90;;;;;;4144121;28;20646;-84
2022/06/04 01:33:12;;;;;;;6.03;4.90;;;18.20;99.90;;;;;;4139737;28;20730;-84
2022/06/04 01:35:19;;;;;;;7.43;5.50;;;18.20;99.90;;;;;;4145221;28;20256;-84
2022/06/04 01:37:26;;;;;;;9.13;5.57;;;18.20;99.90;;;;;;4146519;28;20215;-84
2022/06/04 01:41:03;;;;;;;6.97;5.67;;;18.20;99.90;;;;;;4117697;28;20725;-84
2022/06/04 01:41:56;;;;;;;8.50;5.50;;;18.10;99.90;;;;;;4154872;23;20228;-83
2022/06/04 01:44:01;;;;;;;7.60;5.77;;;18.10;99.90;;;;;;4170479;28;20211;-83
2022/06/04 01:46:10;;;;;;;6.00;5.40;;;18.10;99.90;;;;;;4163342;28;20625;-83
2022/06/04 01:48:15;;;;;;;7.27;5.90;;;18.00;99.90;;;;;;4153634;28;20221;-83
2022/06/04 01:50:21;;;;;;;6.90;6.03;;;18.00;99.90;;;;;;4173625;28;20222;-83
2022/06/04 01:52:27;;;;;;;7.50;6.43;;;18.00;99.90;;;;;;4155811;28;20235;-82
2022/06/04 01:54:33;;;;;;;7.77;5.80;;;17.90;99.90;;;;;;4161868;28;20253;-82
2022/06/04 01:56:38;;;;;;;9.03;6.33;;;17.90;99.90;;;;;;4159578;28;20228;-82
2022/06/04 01:58:46;;;;;;;7.07;6.37;;;17.80;99.90;;;;;;4175162;28;20246;-82
2022/06/04 02:00:53;;;;;;;7.83;5.87;;;17.70;99.90;;;;;;4173114;28;20220;-82
2022/06/04 02:02:59;;;;;;;9.37;6.30;;;17.70;99.90;;;;;;4150864;28;20687;-82
2022/06/04 02:05:05;;;;;;;10.77;7.40;;;17.70;99.90;;;;;;4174173;28;20226;-82
2022/06/04 02:07:33;;;;;;;8.53;7.13;;;17.60;99.90;;;;;;4151798;28;20419;-82
2022/06/04 02:09:37;;;;;;;11.37;8.23;;;17.60;99.90;;;;;;4159588;28;20207;-82
2022/06/04 02:11:43;;;;;;;10.00;8.30;;;17.50;99.90;;;;;;4157476;28;20318;-82
2022/06/04 02:13:50;;;;;;;8.30;7.43;;;17.50;99.90;;;;;;4159485;28;20220;-82
2022/06/04 02:15:56;;;;;;;8.47;7.40;;;17.40;99.90;;;;;;4171636;28;20660;-82
2022/06/04 02:18:00;;;;;;;9.10;8.13;;;17.30;99.90;;;;;;4159363;28;20732;-82
2022/06/04 02:20:02;;;;;;;14.83;8.57;;;17.40;99.90;;;;;;4175395;28;20238;-82
2022/06/04 02:22:07;;;;;;;10.40;7.73;;;17.30;99.90;;;;;;4157055;28;20318;-82
2022/06/04 02:24:10;;;;;;;9.43;7.43;;;17.30;99.90;;;;;;4177105;28;20202;-82
2022/06/04 02:26:12;;;;;;;11.13;7.60;;;17.30;99.90;;;;;;4172734;28;20301;-82
2022/06/04 02:28:14;;;;;;;9.53;7.70;;;17.30;99.90;;;;;;4175049;28;20207;-82
2022/06/04 02:30:18;;;;;;;9.77;7.83;;;17.20;99.90;;;;;;4151811;28;20731;-82
2022/06/04 02:32:28;;;;;;;12.97;8.20;;;17.30;99.90;;;;;;4170617;28;20599;-82
2022/06/04 02:34:36;;;;;;;9.87;8.33;;;17.30;99.90;;;;;;4158875;28;20202;-82
2022/06/04 02:36:46;;;;;;;10.00;8.13;;;17.30;99.90;;;;;;4154487;28;20207;-82
2022/06/04 02:38:56;;;;;;;8.43;7.53;;;17.20;99.90;;;;;;4172257;28;20681;-82
2022/06/04 02:41:03;;;;;;;9.80;7.63;;;17.20;99.90;;;;;;4172324;28;20222;-82
2022/06/04 02:43:12;;;;;;;8.50;7.47;;;17.20;99.90;;;;;;4158885;28;20202;-82
2022/06/04 02:45:21;;;;;;;9.23;8.13;;;17.20;99.90;;;;;;4176617;28;20238;-82
2022/06/04 02:47:28;;;;;;;10.57;8.63;;;17.20;99.90;;;;;;4157288;28;20234;-82
2022/06/04 02:49:37;;;;;;;10.90;8.83;;;17.20;99.90;;;;;;4158838;28;20209;-82
2022/06/04 02:51:43;;;;;;;10.70;9.33;;;17.20;99.90;;;;;;4178154;28;20254;-82
2022/06/04 02:53:45;;;;;;;11.10;9.30;;;17.20;99.90;;;;;;4160599;28;20705;-82
2022/06/04 02:55:52;;;;;;;10.90;9.33;;;17.20;99.90;;;;;;4158656;28;20219;-82
2022/06/04 02:57:59;;;;;;;12.83;9.33;;;17.20;99.90;;;;;;4165235;28;20261;-82
2022/06/04 03:00:02;;;;;;;12.57;9.47;;;17.20;99.90;;;;;;4175042;28;20208;-82
2022/06/04 03:02:09;;;;;;;12.07;9.87;;;17.20;99.90;;;;;;4176166;28;20253;-82
2022/06/04 03:04:11;;;;;;;11.93;9.47;;;17.20;99.90;;;;;;4162923;28;20238;-82
2022/06/04 03:06:25;;;;;;;11.97;9.60;;;17.20;99.90;;;;;;4169936;28;20264;-82
2022/06/04 03:08:31;;;;;;;12.13;9.93;;;17.20;99.90;;;;;;4184216;28;20207;-82
2022/06/04 03:10:36;;;;;;;11.50;9.43;;;17.20;99.90;;;;;;4190366;28;20238;-82
2022/06/04 03:12:38;;;;;;;10.93;9.20;;;17.20;99.90;;;;;;4185501;28;20213;-82
2022/06/04 03:14:40;;;;;;;12.23;10.27;;;17.20;99.90;;;;;;4162395;28;20305;-81
2022/06/04 03:16:44;;;;;;;11.70;9.40;;;17.20;99.90;;;;;;4165057;28;20238;-82
2022/06/04 03:18:47;;;;;;;10.33;9.07;;;17.20;99.90;;;;;;4169868;28;20593;-82
2022/06/04 03:20:49;;;;;;;11.43;9.17;;;17.20;99.90;;;;;;4171462;28;20223;-82
2022/06/04 03:22:52;;;;;;;11.87;10.00;;;17.20;99.90;;;;;;4176400;28;20198;-82
2022/06/04 03:24:54;;;;;;;17.07;10.03;;;17.20;99.90;;;;;;4174326;28;20286;-82
2022/06/04 03:26:56;;;;;;;11.90;9.77;;;17.20;99.90;;;;;;4166553;28;20707;-82
2022/06/04 03:28:58;;;;;;;11.50;9.40;;;17.20;99.90;;;;;;4178997;28;20199;-82
2022/06/04 03:31:01;;;;;;;11.70;10.40;;;17.20;99.90;;;;;;4174810;28;20264;-82
2022/06/04 03:33:03;;;;;;;13.47;10.53;;;17.20;99.90;;;;;;4177800;28;20199;-81
2022/06/04 03:35:08;;;;;;;12.07;9.50;;;17.20;99.90;;;;;;4178564;28;20213;-81
2022/06/04 03:37:10;;;;;;;10.87;9.77;;;17.20;99.90;;;;;;4161534;28;20224;-82
2022/06/04 03:39:12;;;;;;;12.33;9.77;;;17.10;99.90;;;;;;4161978;28;20673;-81
2022/06/04 03:41:14;;;;;;;12.50;9.17;;;17.10;99.90;;;;;;4180802;28;20643;-82
2022/06/04 03:43:16;;;;;;;11.77;9.10;;;17.10;99.90;;;;;;4180395;28;20225;-82
2022/06/04 03:45:18;;;;;;;13.90;9.67;;;17.10;99.90;;;;;;4180983;28;20214;-82
2022/06/04 03:47:20;;;;;;;12.67;9.40;;;17.10;99.90;;;;;;4177559;28;20203;-82
2022/06/04 03:49:21;;;;;;;11.33;9.40;;;17.10;99.90;;;;;;4166117;28;20230;-81
2022/06/04 03:51:28;;;;;;;13.03;9.47;;;17.10;99.90;;;;;;4182980;28;20305;-82
2022/06/04 03:53:29;;;;;;;11.47;9.57;;;17.10;99.90;;;;;;4173325;28;20654;-82
2022/06/04 03:55:31;;;;;;;11.57;9.63;;;17.10;99.90;;;;;;4184489;28;20228;-82
2022/06/04 03:57:45;;;;;;;11.73;9.33;;;17.10;99.90;;;;;;4164241;28;20229;-81
2022/06/04 03:59:51;;;;;;;12.17;9.30;;;17.10;99.90;;;;;;4183583;28;20225;-82
2022/06/04 04:01:54;;;;;;;12.70;9.00;;;17.10;99.90;;;;;;4187048;28;20594;-82
2022/06/04 04:03:57;;;;;;;9.70;8.70;;;17.10;99.90;;;;;;4184628;28;20206;-82
2022/06/04 04:05:59;;;;;;;11.33;8.77;;;17.10;99.90;;;;;;4190957;28;20210;-82
2022/06/04 04:08:05;;;;;;;11.33;8.80;;;17.10;99.90;;;;;;4173618;28;20242;-82
2022/06/04 04:10:08;;;;;;;12.20;8.30;;;17.10;99.90;;;;;;4173675;28;20212;-82
2022/06/04 04:12:10;;;;;;;11.57;8.43;;;17.10;99.90;;;;;;4189238;28;20227;-83
2022/06/04 04:14:12;;;;;;;9.10;8.10;;;17.10;99.90;;;;;;4194705;28;20210;-82
2022/06/04 04:16:16;;;;;;;10.90;8.80;;;17.10;99.90;;;;;;4174997;28;20243;-82
2022/06/04 04:18:18;;;;;;;10.97;9.07;;;17.10;99.90;;;;;;4189848;28;20209;-82
2022/06/04 04:20:23;;;;;;;10.60;9.17;;;17.10;99.90;;;;;;4171464;28;20226;-82
2022/06/04 04:22:25;;;;;;;9.10;7.90;;;17.00;99.90;;;;;;4190307;28;20211;-82
2022/06/04 04:24:28;;;;;;;13.37;8.87;;;17.00;99.90;;;;;;4186050;28;20305;-82
2022/06/04 04:26:30;;;;;;;12.03;8.43;;;17.00;99.90;;;;;;4172292;28;20216;-82
2022/06/04 04:28:32;;;;;;;10.03;8.73;;;17.00;99.90;;;;;;4178940;28;20266;-82
2022/06/04 04:30:36;;;;;;;12.10;8.07;;;17.00;99.90;;;;;;4163220;28;20309;-82
2022/06/04 04:32:38;;;;;;;9.50;8.50;;;17.00;99.90;;;;;;4177428;28;20214;-82
2022/06/04 04:34:40;;;;;;;9.37;8.00;;;17.00;99.90;;;;;;4159200;28;20203;-81
2022/06/04 04:36:42;;;;;;;9.73;7.93;;;17.00;99.90;;;;;;4164655;28;20215;-81
2022/06/04 04:38:44;;;;;;;10.83;8.00;;;17.00;99.90;;;;;;4179970;28;20236;-81
2022/06/04 04:40:49;;;;;;;11.30;7.57;;;17.00;99.90;;;;;;4163481;28;20238;-82
2022/06/04 04:42:52;;;;;;;8.77;7.77;;;17.00;99.90;;;;;;4153644;28;20302;-81
2022/06/04 04:44:53;;;;;;;9.07;8.00;;;17.00;99.90;;;;;;4151839;28;20695;-81
2022/06/04 04:46:55;;;;;;;10.17;7.80;;;17.00;99.90;;;;;;4152750;28;20551;-82
2022/06/04 04:48:57;;;;;;;8.87;7.60;;;17.00;99.90;;;;;;4172273;28;20199;-81
2022/06/04 04:51:00;;;;;;;9.00;7.57;;;17.10;99.90;;;;;;4159486;28;20243;-81
2022/06/04 04:53:04;;;;;;;8.67;7.20;;;17.00;99.90;;;;;;4163468;28;20211;-82
2022/06/04 04:55:07;;;;;;;8.70;7.80;;;17.00;99.90;;;;;;4160043;28;20624;-82
2022/06/04 04:57:10;;;;;;;8.30;7.43;;;17.00;99.90;;;;;;4160105;28;20211;-81
2022/06/04 04:59:12;;;;;;;9.00;7.83;;;17.00;99.90;;;;;;4157746;28;20206;-82
2022/06/04 05:01:15;;;;;;;10.30;7.60;;;16.90;99.90;;;;;;4158875;28;20311;-82
2022/06/04 05:03:17;;;;;;;9.53;8.33;;;17.00;99.90;;;;;;4163580;28;20207;-82
2022/06/04 05:05:19;;;;;;;9.20;7.33;;;16.90;99.90;;;;;;4173733;28;20253;-82
2022/06/04 05:07:21;;;;;;;7.93;7.10;;;16.90;99.90;;;;;;4154538;28;20326;-82
2022/06/04 05:09:23;;;;;;;8.00;6.93;;;16.90;99.90;;;;;;4179476;28;20667;-82
2022/06/04 05:11:27;;;;;;;8.50;7.30;;;16.80;99.90;;;;;;4170884;28;20241;-82
2022/06/04 05:13:30;;;;;;;10.77;7.07;;;16.90;99.90;;;;;;4172978;28;20205;-82
2022/06/04 05:15:32;;;;;;;7.53;6.73;;;16.80;99.90;;;;;;4157881;28;20232;-81
2022/06/04 05:17:35;;;;;;;8.23;7.27;;;16.80;99.90;;;;;;4158575;28;20224;-82
2022/06/04 05:19:37;;;;;;;8.43;7.27;;;16.80;99.90;;;;;;4172216;28;20285;-81
2022/06/04 05:21:42;;;;;;;8.30;7.40;;;17.00;99.90;;;;;;4176171;28;20253;-82
2022/06/04 05:23:44;;;;;;;9.43;7.83;;;16.80;99.90;;;;;;4159052;28;20211;-81
2022/06/04 05:25:46;;;;;;;11.20;7.30;;;16.80;99.90;;;;;;4163520;28;20310;-82
2022/06/04 05:27:49;;;;;;;8.63;7.50;;;16.90;99.90;;;;;;4158915;28;20736;-82
2022/06/04 05:29:52;;;;;;;9.40;8.03;;;16.90;99.90;;;;;;4178186;28;20671;-81
2022/06/04 05:31:54;;;;;;;12.23;8.50;;;16.90;99.90;;;;;;4158691;28;20250;-82
2022/06/04 05:33:56;;;;;;;10.10;7.90;;;16.90;99.90;;;;;;4179290;28;20290;-81
2022/06/04 05:35:58;;;;;;;12.97;8.23;;;16.90;99.90;;;;;;4166411;28;20211;-82
2022/06/04 05:38:00;;;;;;;9.60;7.80;;;16.90;99.90;;;;;;4172769;28;20214;-82
2022/06/04 05:40:02;;;;;;;10.93;8.00;;;16.90;99.90;;;;;;4182050;28;20210;-82
2022/06/04 05:42:07;;;;;;;9.37;7.90;;;16.90;99.90;;;;;;4164918;28;20266;-82
2022/06/04 05:44:09;;;;;;;8.97;7.57;;;16.90;99.90;;;;;;4167345;28;20195;-82
2022/06/04 05:46:15;;;;;;;9.63;7.90;;;16.90;99.90;;;;;;4179888;28;20214;-81
2022/06/04 05:48:17;;;;;;;12.10;8.00;;;17.00;99.90;;;;;;4158291;28;20199;-82
2022/06/04 05:50:19;;;;;;;7.63;6.83;;;17.00;99.90;;;;;;4173805;28;20532;-81
2022/06/04 05:52:21;;;;;;;9.97;7.30;;;17.00;99.90;;;;;;4156369;28;20227;-82
2022/06/04 05:54:23;;;;;;;8.73;7.23;;;17.00;99.90;;;;;;4176055;28;20585;-82
2022/06/04 05:56:29;;;;;;;9.77;7.43;;;17.10;99.90;;;;;;4172319;28;20226;-82
2022/06/04 05:58:30;;;;;;;8.77;6.97;;;17.00;99.90;;;;;;4157363;28;20294;-82
2022/06/04 06:00:32;;;;;;;9.07;6.60;;;17.10;99.90;;;;;;4157998;28;20207;-82
2022/06/04 06:02:36;;;;;;;8.70;6.80;;;17.10;99.90;;;;;;4163099;28;20203;-82
2022/06/04 06:04:38;;;;;;;8.03;6.43;;;17.20;99.90;;;;;;4175093;28;20203;-82
2022/06/04 06:06:42;;;;;;;8.87;6.70;;;17.20;99.90;;;;;;4151282;28;20311;-82
2022/06/04 06:08:45;;;;;;;8.70;6.40;;;17.30;99.90;;;;;;4169366;28;20262;-82
2022/06/04 06:10:47;;;;;;;8.83;6.20;;;17.30;99.90;;;;;;4172448;28;20211;-82
2022/06/04 06:12:49;;;;;;;8.53;6.57;;;17.40;99.90;;;;;;4170444;28;20211;-83
2022/06/04 06:14:51;;;;;;;7.40;5.87;;;17.30;99.90;;;;;;4172993;28;20218;-82
2022/06/04 06:16:53;;;;;;;7.43;6.30;;;17.50;99.90;;;;;;4171535;28;20320;-82
2022/06/04 06:18:58;;;;;;;6.63;5.37;;;17.50;99.90;;;;;;4171994;28;20214;-82
2022/06/04 06:21:00;;;;;;;6.40;5.23;;;17.60;99.90;;;;;;4151085;28;20307;-83
2022/06/04 06:23:02;;;;;;;7.57;5.70;;;17.60;99.90;;;;;;4169959;28;20206;-82
2022/06/04 06:25:05;;;;;;;7.60;5.80;;;17.60;99.90;;;;;;4152090;28;20299;-82
2022/06/04 06:27:08;;;;;;;8.30;6.03;;;17.60;99.90;;;;;;4169432;28;20248;-82
2022/06/04 06:29:10;;;;;;;5.83;5.13;;;17.70;99.90;;;;;;4170946;28;20249;-82
2022/06/04 06:31:15;;;;;;;6.93;5.70;;;17.70;99.90;;;;;;4175413;28;20233;-83
2022/06/04 06:33:17;;;;;;;7.03;5.57;;;17.80;99.90;;;;;;4165088;28;20304;-83
2022/06/04 06:35:21;;;;;;;6.17;5.57;;;17.80;99.90;;;;;;4152988;28;20238;-82
2022/06/04 06:37:23;;;;;;;6.57;5.40;;;17.80;99.90;;;;;;4156064;28;20204;-82
2022/06/04 06:39:25;;;;;;;6.70;5.93;;;17.90;99.90;;;;;;4168308;28;20250;-82
2022/06/04 06:41:27;;;;;;;10.03;5.73;;;17.90;99.90;;;;;;4169819;28;20322;-82
2022/06/04 06:43:34;;;;;;;6.87;5.50;;;18.00;99.90;;;;;;4168652;28;20204;-82
2022/06/04 06:45:36;;;;;;;7.00;5.60;;;18.00;99.90;;;;;;4153553;28;20732;-82
2022/06/04 06:47:40;;;;;;;7.00;5.30;;;18.10;99.90;;;;;;4154305;28;20258;-82
2022/06/04 06:49:43;;;;;;;5.97;5.20;;;18.10;99.90;;;;;;4173544;28;20210;-83
2022/06/04 06:51:49;;;;;;;7.03;5.13;;;18.20;99.90;;;;;;4170959;28;20318;-82
2022/06/04 06:53:54;;;;;;;7.13;5.17;;;18.20;99.90;;;;;;4157380;28;20291;-82
2022/06/04 06:55:56;;;;;;;7.40;5.57;;;18.20;99.90;;;;;;4170264;28;20270;-83
2022/06/04 06:57:58;;;;;;;7.80;5.13;;;18.30;99.90;;;;;;4173445;28;20243;-82
2022/06/04 07:00:00;;;;;;;5.57;4.90;;;18.30;99.90;;;;;;4171656;28;20214;-82
2022/06/04 07:02:02;;;;;;;16.23;5.23;;;18.30;99.90;;;;;;4173921;28;20281;-82
2022/06/04 07:04:05;;;;;;;7.27;5.23;;;18.30;99.90;;;;;;4179511;28;20865;-82
2022/06/04 07:06:12;;;;;;;7.77;5.50;;;18.30;99.90;;;;;;4171244;28;20303;-82
2022/06/04 07:08:15;;;;;;;7.00;5.87;;;18.40;99.90;;;;;;4171847;28;20551;-82
2022/06/04 07:10:17;;;;;;;6.20;5.07;;;18.40;99.90;;;;;;4166959;28;20214;-82
2022/06/04 07:12:19;;;;;;;6.57;5.20;;;18.40;99.90;;;;;;4155242;28;20331;-82
2022/06/04 07:14:22;;;;;;;9.07;5.80;;;18.40;99.90;;;;;;4159102;28;20293;-82
2022/06/04 07:16:24;;;;;;;7.90;5.50;;;18.50;99.90;;;;;;4153262;28;20719;-82
2022/06/04 07:18:27;;;;;;;8.17;4.93;;;18.50;99.90;;;;;;4169743;28;20563;-82
2022/06/04 07:20:28;;;;;;;8.27;5.57;;;18.50;99.90;;;;;;4160979;28;20208;-82
2022/06/04 07:22:31;;;;;;;6.63;5.27;;;18.60;99.90;;;;;;4175151;28;20224;-82
2022/06/04 07:24:35;;;;;;;5.97;5.20;;;18.60;99.90;;;;;;4154872;28;20215;-82
2022/06/04 07:26:37;;;;;;;8.80;5.30;;;18.70;99.90;;;;;;4175642;28;20217;-83
2022/06/04 07:28:40;;;;;;;6.53;5.13;;;18.70;99.90;;;;;;4182277;28;20662;-82
2022/06/04 07:30:42;;;;;;;8.43;5.60;;;18.80;99.90;;;;;;4174419;28;20261;-82
2022/06/04 07:32:44;;;;;;;7.87;5.10;;;18.80;99.90;;;;;;4173020;28;20266;-82
2022/06/04 07:34:46;;;;;;;4.93;4.43;;;18.80;99.90;;;;;;4172095;28;20273;-82
2022/06/04 07:36:48;;;;;;;9.83;5.30;;;19.00;99.90;;;;;;4175042;28;20207;-82
2022/06/04 07:38:51;;;;;;;5.17;4.60;;;19.00;99.90;;;;;;4161466;28;20213;-82
2022/06/04 07:40:54;;;;;;;7.07;5.27;;;19.00;99.90;;;;;;4180326;28;20219;-82
2022/06/04 07:42:56;;;;;;;5.70;5.07;;;19.10;99.90;;;;;;4177071;28;20229;-82
2022/06/04 07:44:58;;;;;;;7.27;4.50;;;19.10;99.90;;;;;;4172053;28;20238;-83
2022/06/04 07:47:00;;;;;;;7.07;4.90;;;19.20;99.90;;;;;;4169684;28;20287;-83
2022/06/04 07:49:05;;;;;;;6.73;4.67;;;19.20;99.90;;;;;;4167630;28;20214;-83
2022/06/04 07:51:07;;;;;;;6.17;4.97;;;19.20;99.90;;;;;;4179238;28;20721;-82
2022/06/04 07:53:09;;;;;;;6.10;4.53;;;19.20;99.90;;;;;;4172150;28;20279;-83
2022/06/04 07:55:11;;;;;;;6.87;5.13;;;19.20;99.90;;;;;;4159927;28;20231;-83
2022/06/04 07:57:14;;;;;;;7.60;5.13;;;19.20;99.90;;;;;;4154374;28;20262;-82
2022/06/04 07:59:17;;;;;;;7.17;4.90;;;19.20;99.90;;;;;;4176311;28;20207;-82
2022/06/04 08:01:22;;;;;;;9.13;4.40;;;19.20;99.90;;;;;;4155391;28;20242;-82
2022/06/04 08:03:24;;;;;;;6.80;5.00;;;19.20;99.90;;;;;;4156522;28;20268;-82
2022/06/04 08:05:25;;;;;;;6.00;4.70;;;19.20;99.90;;;;;;4167145;28;20663;-83
2022/06/04 08:07:27;;;;;;;7.63;4.13;;;19.30;99.90;;;;;;4156587;28;20299;-83
2022/06/04 08:09:29;;;;;;;5.60;4.43;;;19.30;99.90;;;;;;4165186;28;20218;-82
2022/06/04 08:11:35;;;;;;;5.30;4.30;;;19.40;99.90;;;;;;4174917;28;20227;-82
2022/06/04 08:13:38;;;;;;;6.93;5.07;;;19.40;99.90;;;;;;4156433;28;20213;-82
2022/06/04 08:15:42;;;;;;;6.37;4.70;;;19.50;99.90;;;;;;4158808;28;20588;-82
2022/06/04 08:17:47;;;;;;;5.93;4.90;;;19.50;99.90;;;;;;4166475;28;20244;-82
2022/06/04 08:19:49;;;;;;;6.30;5.00;;;19.60;99.90;;;;;;4157280;28;20214;-82
2022/06/04 08:21:52;;;;;;;7.13;5.00;;;19.60;99.90;;;;;;4157555;28;20231;-82
2022/06/04 08:23:54;;;;;;;6.10;5.03;;;19.70;99.90;;;;;;4159169;28;20663;-83
2022/06/04 08:25:56;;;;;;;7.33;4.77;;;19.70;99.90;;;;;;4156686;28;20649;-82
2022/06/04 08:27:58;;;;;;;6.50;4.60;;;19.80;99.90;;;;;;4175217;28;20246;-82
2022/06/04 08:30:01;;;;;;;6.10;4.70;;;19.80;99.90;;;;;;4174511;28;20214;-82
2022/06/04 08:32:04;;;;;;;6.57;5.07;;;19.70;99.90;;;;;;4171667;28;20232;-82
2022/06/04 08:34:06;;;;;;;6.13;5.07;;;19.90;99.90;;;;;;4174791;28;20297;-82
2022/06/04 08:36:11;;;;;;;7.90;5.23;;;19.90;99.90;;;;;;4155062;28;20271;-82
2022/06/04 08:38:12;;;;;;;9.37;6.20;;;20.00;99.90;;;;;;4156566;28;20591;-82
2022/06/04 08:40:26;;;;;;;7.03;5.70;;;20.00;99.90;;;;;;4154787;28;20614;-82
2022/06/04 08:42:53;;;;;;;6.03;5.27;;;20.10;99.90;;;;;;4154900;28;20241;-82
2022/06/04 08:45:01;;;;;;;9.33;5.13;;;20.10;99.90;;;;;;4157875;28;20231;-82
2022/06/04 08:47:11;;;;;;;6.30;5.13;;;20.10;99.90;;;;;;4179106;28;20269;-82
2022/06/04 08:49:17;;;;;;;9.40;5.53;;;20.20;99.90;;;;;;4163897;28;20582;-82
2022/06/04 08:51:23;;;;;;;8.63;5.90;;;20.30;99.90;;;;;;4153119;28;20225;-82
2022/06/04 08:53:28;;;;;;;9.67;6.27;;;20.30;99.90;;;;;;4177122;28;20253;-82
2022/06/04 08:58:06;;;;;;;6.93;5.60;;;20.50;99.90;;;;;;4158932;28;20266;-82
2022/06/04 09:00:18;;;;;;;5.87;5.07;;;20.50;99.90;;;;;;4182002;28;20210;-82
2022/06/04 09:02:24;;;;;;;7.57;5.40;;;20.50;99.90;;;;;;4165450;28;20223;-83
2022/06/04 09:04:42;;;;;;;7.67;5.67;;;20.60;99.90;;;;;;4186512;28;20210;-82
2022/06/04 09:06:49;;;;;;;7.23;5.70;;;20.70;99.90;;;;;;4164266;28;20591;-83
2022/06/04 09:08:57;;;;;;;7.47;5.70;;;20.80;99.90;;;;;;4178413;28;20686;-82
2022/06/04 09:11:04;;;;;;;5.43;4.77;;;20.80;99.90;;;;;;4159795;28;20253;-83
2022/06/04 09:13:12;;;;;;;6.37;5.27;;;20.90;99.90;;;;;;4175232;28;20511;-82
2022/06/04 09:15:19;;;;;;;5.97;5.10;;;21.00;99.90;;;;;;4158674;28;20971;-82
2022/06/04 09:17:29;;;;;;;7.10;5.07;;;21.10;99.90;;;;;;4172970;28;20213;-82
2022/06/04 09:19:35;;;;;;;6.13;5.20;;;21.10;99.90;;;;;;4175174;28;20721;-82
2022/06/04 09:21:39;;;;;;;11.03;7.17;;;21.20;99.90;;;;;;4179297;28;20318;-83
2022/06/04 09:23:45;;;;;;;10.03;5.70;;;21.40;99.90;;;;;;4178597;28;20195;-81
2022/06/04 09:25:56;;;;;;;6.03;5.40;;;21.50;99.90;;;;;;4173755;28;20207;-82
2022/06/04 09:28:07;;;;;;;6.47;5.23;;;21.60;99.90;;;;;;4154961;28;20290;-81
2022/06/04 09:30:25;;;;;;;6.30;5.10;;;21.70;99.90;;;;;;4170468;28;20204;-80
2022/06/04 09:32:46;;;;;;;8.23;5.73;;;21.80;99.90;;;;;;4157111;28;20240;-82
2022/06/04 09:34:53;;;;;;;7.73;5.30;;;21.90;99.90;;;;;;4155200;28;20302;-81
2022/06/04 09:36:55;;;;;;;8.73;4.77;;;22.10;99.90;;;;;;4163442;28;20254;-81
2022/06/04 09:39:00;;;;;;;8.30;5.87;;;22.20;99.90;;;;;;4157108;28;20203;-80
2022/06/04 09:41:05;;;;;;;6.97;5.47;;;22.30;99.90;;;;;;4175370;28;20757;-81
2022/06/04 09:43:12;;;;;;;7.40;5.07;;;22.40;99.90;;;;;;4177821;28;20664;-80
2022/06/04 09:45:22;;;;;;;9.80;5.40;;;22.60;99.90;;;;;;4158210;28;20214;-81
2022/06/04 09:47:31;;;;;;;6.03;4.83;;;22.70;99.90;;;;;;4175137;28;20216;-82
2022/06/04 09:49:38;;;;;;;6.53;4.73;;;22.70;99.90;;;;;;4153674;28;20292;-81
2022/06/04 09:51:43;;;;;;;7.20;5.03;;;22.80;99.90;;;;;;4160547;28;20804;-83
2022/06/04 09:53:48;;;;;;;7.63;4.80;;;22.90;99.90;;;;;;4166285;28;20326;-82
2022/06/04 09:55:53;;;;;;;5.93;5.10;;;23.00;99.90;;;;;;4163221;28;20203;-82
2022/06/04 09:57:58;;;;;;;5.97;4.50;;;23.00;99.90;;;;;;4169410;28;20221;-82
2022/06/04 10:00:02;;;;;;;6.37;4.70;;;23.10;99.90;;;;;;4182745;28;20206;-82
2022/06/04 10:02:18;;;;;;;7.23;4.53;;;23.20;99.90;;;;;;4177263;28;20231;-82
2022/06/04 10:04:20;;;;;;;6.33;4.87;;;23.30;99.90;;;;;;4173551;28;20217;-79
2022/06/04 10:06:25;;;;;;;6.03;4.70;;;23.40;99.90;;;;;;4177965;28;20215;-82
2022/06/04 10:08:29;;;;;;;5.67;4.40;;;23.50;99.90;;;;;;4183824;28;20237;-83
2022/06/04 10:10:38;;;;;;;4.93;4.20;;;23.60;99.90;;;;;;4173726;28;20215;-83
2022/06/04 10:15:16;;;;;;;7.23;4.73;;;23.70;99.30;;;;;;4173266;28;20200;-82
2022/06/04 10:17:32;;;;;;;6.30;4.43;;;23.80;96.90;;;;;;4164123;28;20211;-82
2022/06/04 10:19:35;;;;;;;4.47;4.00;;;23.90;95.20;;;;;;4174507;28;20206;-82
2022/06/04 10:21:43;;;;;;;5.43;4.43;;;24.00;94.40;;;;;;4181224;28;20231;-81
2022/06/04 10:23:47;;;;;;;6.90;4.30;;;24.00;95.70;;;;;;4159719;28;20207;-82
2022/06/04 10:26:09;;;;;;;5.87;4.50;;;24.10;94.60;;;;;;4161565;28;20619;-80
2022/06/04 10:28:26;;;;;;;7.47;4.80;;;24.20;96.90;;;;;;4147113;28;20219;-83
2022/06/04 10:30:34;;;;;;;5.10;4.37;;;24.20;93.90;;;;;;4157480;28;20292;-81
2022/06/04 10:32:52;;;;;;;6.20;4.30;;;24.30;97.70;;;;;;4157317;28;20207;-81
2022/06/04 10:35:03;;;;;;;5.33;4.07;;;24.50;97.40;;;;;;4173760;28;20652;-82
2022/06/04 10:37:18;;;;;;;7.30;3.80;;;24.60;92.50;;;;;;4169532;28;20203;-83
2022/06/04 10:39:34;;;;;;;5.97;3.70;;;24.70;90.40;;;;;;4156164;28;20207;-82
2022/06/04 10:41:44;;;;;;;4.93;4.27;;;24.80;95.50;;;;;;4155579;28;20286;-83
2022/06/04 10:44:14;;;;;;;5.47;4.07;;;25.00;90.70;;;;;;4167407;28;20671;-81
2022/06/04 10:46:23;;;;;;;5.10;4.50;;;25.20;88.20;;;;;;4173523;28;20241;-83
2022/06/04 10:48:40;;;;;;;6.73;4.67;;;25.30;89.20;;;;;;4151298;28;20239;-82
2022/06/04 10:53:22;;;;;;;5.43;4.07;;;25.50;86.10;;;;;;4163030;28;20671;-81
2022/06/04 10:55:34;;;;;;;8.80;3.90;;;25.70;85.90;;;;;;4147315;28;20664;-80
2022/06/04 10:57:45;;;;;;;5.73;3.73;;;25.70;85.90;;;;;;4167828;28;20307;-82
2022/06/04 10:59:55;;;;;;;5.73;4.10;;;25.90;87.90;;;;;;4167100;28;20245;-81
2022/06/04 11:02:03;;;;;;;5.43;3.20;;;26.00;84.70;;;;;;4170453;28;20237;-80
2022/06/04 11:04:16;;;;;;;5.03;4.00;;;26.00;88.70;;;;;;4176791;28;20631;-81
2022/06/04 11:06:25;;;;;;;4.33;3.40;;;26.10;83.00;;;;;;4165181;28;20206;-80
2022/06/04 11:08:31;;;;;;;4.97;3.53;;;26.20;83.90;;;;;;4170719;28;20297;-80